sensor_id;sensor_type;location;lat;lon;timestamp;temperature;humidity
65146;DHT22;51730;56.950;24.126;2023-03-14T00:00:23;4.40;99.90
65146;DHT22;51730;56.950;24.126;2023-03-14T00:02:53;4.30;99.90
65146;DHT22;51730;56.950;24.126;2023-03-14T00:05:20;4.30;99.90
65146;DHT22;51730;56.950;24.126;2023-03-14T00:07:47;4.30;99.90
65146;DHT22;51730;56.950;24.126;2023-03-14T00:10:14;4.30;99.90
65146;DHT22;51730;56.950;24.126;2023-03-14T00:12:41;4.30;99.90
65146;DHT22;51730;56.950;24.126;2023-03-14T00:15:09;4.30;99.90
65146;DHT22;51730;56.950;24.126;2023-03-14T00:17:36;4.40;99.90
65146;DHT22;51730;56.950;24.126;2023-03-14T00:20:04;4.40;99.90
65146;DHT22;51730;56.950;24.126;2023-03-14T00:22:35;4.40;99.90
65146;DHT22;51730;56.950;24.126;2023-03-14T00:25:02;4.40;99.90
65146;DHT22;51730;56.950;24.126;2023-03-14T00:27:29;4.40;99.90
65146;DHT22;51730;56.950;24.126;2023-03-14T00:29:56;4.50;99.90
65146;DHT22;51730;56.950;24.126;2023-03-14T00:32:23;4.50;99.90
65146;DHT22;51730;56.950;24.126;2023-03-14T00:34:50;4.50;99.90
65146;DHT22;51730;56.950;24.126;2023-03-14T00:37:17;4.50;99.90
65146;DHT22;51730;56.950;24.126;2023-03-14T00:39:45;4.50;99.90
65146;DHT22;51730;56.950;24.126;2023-03-14T00:42:12;4.60;99.90
65146;DHT22;51730;56.950;24.126;2023-03-14T00:44:38;4.60;99.90
65146;DHT22;51730;56.950;24.126;2023-03-14T00:47:05;4.60;99.90
65146;DHT22;51730;56.950;24.126;2023-03-14T00:49:33;4.60;99.90
65146;DHT22;51730;56.950;24.126;2023-03-14T00:51:59;4.60;99.90
65146;DHT22;51730;56.950;24.126;2023-03-14T00:54:26;4.60;99.90
65146;DHT22;51730;56.950;24.126;2023-03-14T00:56:53;4.60;99.90
65146;DHT22;51730;56.950;24.126;2023-03-14T00:59:20;4.70;99.90
65146;DHT22;51730;56.950;24.126;2023-03-14T01:01:46;4.70;99.90
65146;DHT22;51730;56.950;24.126;2023-03-14T01:04:13;4.80;99.90
65146;DHT22;51730;56.950;24.126;2023-03-14T01:06:40;4.80;99.90
65146;DHT22;51730;56.950;24.126;2023-03-14T01:09:07;4.80;99.90
65146;DHT22;51730;56.950;24.126;2023-03-14T01:11:34;4.90;99.90
65146;DHT22;51730;56.950;24.126;2023-03-14T01:14:01;4.90;99.90
65146;DHT22;51730;56.950;24.126;2023-03-14T01:16:30;4.90;99.90
65146;DHT22;51730;56.950;24.126;2023-03-14T01:18:57;4.90;99.90
65146;DHT22;51730;56.950;24.126;2023-03-14T01:21:25;4.90;99.90
65146;DHT22;51730;56.950;24.126;2023-03-14T01:23:52;4.90;99.90
65146;DHT22;51730;56.950;24.126;2023-03-14T01:26:20;5.10;99.90
65146;DHT22;51730;56.950;24.126;2023-03-14T01:28:48;5.10;99.90
65146;DHT22;51730;56.950;24.126;2023-03-14T01:31:15;5.10;99.90
65146;DHT22;51730;56.950;24.126;2023-03-14T01:33:42;5.10;99.90
65146;DHT22;51730;56.950;24.126;2023-03-14T01:36:09;5.10;99.90
65146;DHT22;51730;56.950;24.126;2023-03-14T01:38:37;5.20;99.90
65146;DHT22;51730;56.950;24.126;2023-03-14T01:41:04;5.20;99.90
65146;DHT22;51730;56.950;24.126;2023-03-14T01:43:31;5.20;99.90
65146;DHT22;51730;56.950;24.126;2023-03-14T01:48:25;5.20;99.90
65146;DHT22;51730;56.950;24.126;2023-03-14T01:50:53;5.20;99.90
65146;DHT22;51730;56.950;24.126;2023-03-14T01:53:20;5.20;99.90
65146;DHT22;51730;56.950;24.126;2023-03-14T01:55:48;5.20;99.90
65146;DHT22;51730;56.950;24.126;2023-03-14T01:58:15;5.20;99.90
65146;DHT22;51730;56.950;24.126;2023-03-14T02:00:43;5.20;99.90
65146;DHT22;51730;56.950;24.126;2023-03-14T02:03:11;5.20;99.90
65146;DHT22;51730;56.950;24.126;2023-03-14T02:05:39;5.30;99.90
65146;DHT22;51730;56.950;24.126;2023-03-14T02:08:08;5.30;99.90
65146;DHT22;51730;56.950;24.126;2023-03-14T02:10:41;5.30;99.90
65146;DHT22;51730;56.950;24.126;2023-03-14T02:13:08;5.40;99.90
65146;DHT22;51730;56.950;24.126;2023-03-14T02:15:35;5.40;99.90
65146;DHT22;51730;56.950;24.126;2023-03-14T02:18:02;5.40;99.90
65146;DHT22;51730;56.950;24.126;2023-03-14T02:20:34;5.40;99.90
65146;DHT22;51730;56.950;24.126;2023-03-14T02:23:05;5.40;99.90
65146;DHT22;51730;56.950;24.126;2023-03-14T02:28:04;5.40;99.90
65146;DHT22;51730;56.950;24.126;2023-03-14T02:30:31;5.40;99.90
65146;DHT22;51730;56.950;24.126;2023-03-14T02:33:08;5.40;99.90
65146;DHT22;51730;56.950;24.126;2023-03-14T02:35:37;5.50;99.90
65146;DHT22;51730;56.950;24.126;2023-03-14T02:40:36;5.50;99.90
65146;DHT22;51730;56.950;24.126;2023-03-14T02:43:02;5.50;99.90
65146;DHT22;51730;56.950;24.126;2023-03-14T02:45:40;5.50;99.90
65146;DHT22;51730;56.950;24.126;2023-03-14T02:48:09;5.60;99.90
65146;DHT22;51730;56.950;24.126;2023-03-14T02:50:37;5.60;99.90
65146;DHT22;51730;56.950;24.126;2023-03-14T02:53:04;5.60;99.90
65146;DHT22;51730;56.950;24.126;2023-03-14T02:55:31;5.70;99.90
65146;DHT22;51730;56.950;24.126;2023-03-14T02:57:58;5.60;99.90
65146;DHT22;51730;56.950;24.126;2023-03-14T03:00:25;5.70;99.90
65146;DHT22;51730;56.950;24.126;2023-03-14T03:02:52;5.70;99.90
65146;DHT22;51730;56.950;24.126;2023-03-14T03:05:19;5.70;99.90
65146;DHT22;51730;56.950;24.126;2023-03-14T03:07:46;5.70;99.90
65146;DHT22;51730;56.950;24.126;2023-03-14T03:10:13;5.70;99.90
65146;DHT22;51730;56.950;24.126;2023-03-14T03:12:40;5.80;99.90
65146;DHT22;51730;56.950;24.126;2023-03-14T03:15:07;5.80;99.90
65146;DHT22;51730;56.950;24.126;2023-03-14T03:17:33;5.80;99.90
65146;DHT22;51730;56.950;24.126;2023-03-14T03:20:00;5.80;99.90
65146;DHT22;51730;56.950;24.126;2023-03-14T03:22:27;5.80;99.90
65146;DHT22;51730;56.950;24.126;2023-03-14T03:24:54;5.80;99.90
65146;DHT22;51730;56.950;24.126;2023-03-14T03:27:20;5.80;99.90
65146;DHT22;51730;56.950;24.126;2023-03-14T03:29:47;5.80;99.90
65146;DHT22;51730;56.950;24.126;2023-03-14T03:32:14;5.90;99.90
65146;DHT22;51730;56.950;24.126;2023-03-14T03:34:41;5.90;99.90
65146;DHT22;51730;56.950;24.126;2023-03-14T03:37:07;5.90;99.90
65146;DHT22;51730;56.950;24.126;2023-03-14T03:39:34;5.90;99.90
65146;DHT22;51730;56.950;24.126;2023-03-14T03:42:01;5.80;99.90
65146;DHT22;51730;56.950;24.126;2023-03-14T03:44:28;5.90;99.90
65146;DHT22;51730;56.950;24.126;2023-03-14T03:46:55;5.90;99.90
65146;DHT22;51730;56.950;24.126;2023-03-14T03:49:21;5.90;99.90
65146;DHT22;51730;56.950;24.126;2023-03-14T03:51:48;5.90;99.90
65146;DHT22;51730;56.950;24.126;2023-03-14T03:54:15;5.90;99.90
65146;DHT22;51730;56.950;24.126;2023-03-14T03:56:42;6.00;99.90
65146;DHT22;51730;56.950;24.126;2023-03-14T03:59:09;6.00;99.90
65146;DHT22;51730;56.950;24.126;2023-03-14T04:01:35;6.00;99.90
65146;DHT22;51730;56.950;24.126;2023-03-14T04:04:02;6.00;99.90
65146;DHT22;51730;56.950;24.126;2023-03-14T04:06:29;6.00;99.90
65146;DHT22;51730;56.950;24.126;2023-03-14T04:08:56;6.00;99.90
65146;DHT22;51730;56.950;24.126;2023-03-14T04:11:23;6.00;99.90
65146;DHT22;51730;56.950;24.126;2023-03-14T04:13:50;6.00;99.90
65146;DHT22;51730;56.950;24.126;2023-03-14T04:16:18;6.00;99.90
65146;DHT22;51730;56.950;24.126;2023-03-14T04:18:45;6.00;99.90
65146;DHT22;51730;56.950;24.126;2023-03-14T04:21:12;6.00;99.90
65146;DHT22;51730;56.950;24.126;2023-03-14T04:23:39;6.00;99.90
65146;DHT22;51730;56.950;24.126;2023-03-14T04:26:06;6.00;99.90
65146;DHT22;51730;56.950;24.126;2023-03-14T04:28:33;6.00;99.90
65146;DHT22;51730;56.950;24.126;2023-03-14T04:33:35;6.00;99.90
65146;DHT22;51730;56.950;24.126;2023-03-14T04:36:04;6.10;99.90
65146;DHT22;51730;56.950;24.126;2023-03-14T04:38:31;6.10;99.90
65146;DHT22;51730;56.950;24.126;2023-03-14T04:40:58;6.10;99.90
65146;DHT22;51730;56.950;24.126;2023-03-14T04:43:25;6.10;99.90
65146;DHT22;51730;56.950;24.126;2023-03-14T04:45:56;6.10;99.90
65146;DHT22;51730;56.950;24.126;2023-03-14T04:48:24;6.10;99.90
65146;DHT22;51730;56.950;24.126;2023-03-14T04:50:51;6.10;99.90
65146;DHT22;51730;56.950;24.126;2023-03-14T04:53:18;6.10;99.90
65146;DHT22;51730;56.950;24.126;2023-03-14T04:55:51;6.10;99.90
65146;DHT22;51730;56.950;24.126;2023-03-14T04:58:19;6.20;99.90
65146;DHT22;51730;56.950;24.126;2023-03-14T05:00:46;6.20;99.90
65146;DHT22;51730;56.950;24.126;2023-03-14T05:03:16;6.20;99.90
65146;DHT22;51730;56.950;24.126;2023-03-14T05:05:43;6.10;99.90
65146;DHT22;51730;56.950;24.126;2023-03-14T05:08:10;6.20;99.90
65146;DHT22;51730;56.950;24.126;2023-03-14T05:10:37;6.20;99.90
65146;DHT22;51730;56.950;24.126;2023-03-14T05:13:04;6.30;99.90
65146;DHT22;51730;56.950;24.126;2023-03-14T05:15:30;6.30;99.90
65146;DHT22;51730;56.950;24.126;2023-03-14T05:17:57;6.30;99.90
65146;DHT22;51730;56.950;24.126;2023-03-14T05:20:24;6.40;99.90
65146;DHT22;51730;56.950;24.126;2023-03-14T05:22:51;6.40;99.90
65146;DHT22;51730;56.950;24.126;2023-03-14T05:25:17;6.40;99.90
65146;DHT22;51730;56.950;24.126;2023-03-14T05:27:44;6.30;99.90
65146;DHT22;51730;56.950;24.126;2023-03-14T05:30:11;6.30;99.90
65146;DHT22;51730;56.950;24.126;2023-03-14T05:32:38;6.30;99.90
65146;DHT22;51730;56.950;24.126;2023-03-14T05:35:05;6.40;99.90
65146;DHT22;51730;56.950;24.126;2023-03-14T05:37:32;6.30;99.90
65146;DHT22;51730;56.950;24.126;2023-03-14T05:39:59;6.40;99.90
65146;DHT22;51730;56.950;24.126;2023-03-14T05:42:25;6.40;99.90
65146;DHT22;51730;56.950;24.126;2023-03-14T05:44:52;6.40;99.90
65146;DHT22;51730;56.950;24.126;2023-03-14T05:47:19;6.50;99.90
65146;DHT22;51730;56.950;24.126;2023-03-14T05:49:46;6.40;99.90
65146;DHT22;51730;56.950;24.126;2023-03-14T05:52:12;6.40;99.90
65146;DHT22;51730;56.950;24.126;2023-03-14T05:54:39;6.50;99.90
65146;DHT22;51730;56.950;24.126;2023-03-14T05:57:06;6.50;99.90
65146;DHT22;51730;56.950;24.126;2023-03-14T05:59:33;6.40;99.90
65146;DHT22;51730;56.950;24.126;2023-03-14T06:02:00;6.40;99.90
65146;DHT22;51730;56.950;24.126;2023-03-14T06:04:27;6.50;99.90
65146;DHT22;51730;56.950;24.126;2023-03-14T06:06:53;6.50;99.90
65146;DHT22;51730;56.950;24.126;2023-03-14T06:09:20;6.50;99.90
65146;DHT22;51730;56.950;24.126;2023-03-14T06:11:49;6.50;99.90
65146;DHT22;51730;56.950;24.126;2023-03-14T06:14:16;6.50;99.90
65146;DHT22;51730;56.950;24.126;2023-03-14T06:16:43;6.50;99.90
65146;DHT22;51730;56.950;24.126;2023-03-14T06:19:11;6.50;99.90
65146;DHT22;51730;56.950;24.126;2023-03-14T06:21:38;6.50;99.90
65146;DHT22;51730;56.950;24.126;2023-03-14T06:24:05;6.50;99.90
65146;DHT22;51730;56.950;24.126;2023-03-14T06:26:31;6.50;99.90
65146;DHT22;51730;56.950;24.126;2023-03-14T06:28:58;6.50;99.90
65146;DHT22;51730;56.950;24.126;2023-03-14T06:31:30;6.60;99.90
65146;DHT22;51730;56.950;24.126;2023-03-14T06:33:57;6.60;99.90
65146;DHT22;51730;56.950;24.126;2023-03-14T06:36:23;6.60;99.90
65146;DHT22;51730;56.950;24.126;2023-03-14T06:38:50;6.60;99.90
65146;DHT22;51730;56.950;24.126;2023-03-14T06:41:17;6.70;99.90
65146;DHT22;51730;56.950;24.126;2023-03-14T06:43:44;6.70;99.90
65146;DHT22;51730;56.950;24.126;2023-03-14T06:46:11;6.80;99.90
65146;DHT22;51730;56.950;24.126;2023-03-14T06:48:38;6.80;99.90
65146;DHT22;51730;56.950;24.126;2023-03-14T06:51:04;6.70;99.90
65146;DHT22;51730;56.950;24.126;2023-03-14T06:53:31;6.70;99.90
65146;DHT22;51730;56.950;24.126;2023-03-14T06:55:58;6.70;99.90
65146;DHT22;51730;56.950;24.126;2023-03-14T06:58:25;6.80;99.90
65146;DHT22;51730;56.950;24.126;2023-03-14T07:00:52;6.80;99.90
65146;DHT22;51730;56.950;24.126;2023-03-14T07:03:19;6.80;99.90
65146;DHT22;51730;56.950;24.126;2023-03-14T07:05:46;6.80;99.90
65146;DHT22;51730;56.950;24.126;2023-03-14T07:08:12;6.80;99.90
65146;DHT22;51730;56.950;24.126;2023-03-14T07:10:39;6.90;99.90
65146;DHT22;51730;56.950;24.126;2023-03-14T07:13:06;6.80;99.90
65146;DHT22;51730;56.950;24.126;2023-03-14T07:15:33;6.90;99.90
65146;DHT22;51730;56.950;24.126;2023-03-14T07:17:59;6.90;99.90
65146;DHT22;51730;56.950;24.126;2023-03-14T07:20:26;6.90;99.90
65146;DHT22;51730;56.950;24.126;2023-03-14T07:22:53;6.90;99.90
65146;DHT22;51730;56.950;24.126;2023-03-14T07:25:20;6.90;99.90
65146;DHT22;51730;56.950;24.126;2023-03-14T07:27:47;6.90;99.90
65146;DHT22;51730;56.950;24.126;2023-03-14T07:30:14;6.90;99.90
65146;DHT22;51730;56.950;24.126;2023-03-14T07:32:41;6.90;99.90
65146;DHT22;51730;56.950;24.126;2023-03-14T07:35:08;6.90;99.90
65146;DHT22;51730;56.950;24.126;2023-03-14T07:37:35;6.90;99.90
65146;DHT22;51730;56.950;24.126;2023-03-14T07:40:01;6.90;99.90
65146;DHT22;51730;56.950;24.126;2023-03-14T07:42:31;7.00;99.90
65146;DHT22;51730;56.950;24.126;2023-03-14T07:44:58;7.00;99.90
65146;DHT22;51730;56.950;24.126;2023-03-14T07:47:25;7.00;99.90
65146;DHT22;51730;56.950;24.126;2023-03-14T07:49:52;7.00;99.90
65146;DHT22;51730;56.950;24.126;2023-03-14T07:52:18;7.00;99.90
65146;DHT22;51730;56.950;24.126;2023-03-14T07:54:45;7.00;99.90
65146;DHT22;51730;56.950;24.126;2023-03-14T07:57:12;7.00;99.90
65146;DHT22;51730;56.950;24.126;2023-03-14T07:59:39;7.10;99.90
65146;DHT22;51730;56.950;24.126;2023-03-14T08:02:07;7.10;99.90
65146;DHT22;51730;56.950;24.126;2023-03-14T08:04:38;7.10;99.90
65146;DHT22;51730;56.950;24.126;2023-03-14T08:07:05;7.10;99.90
65146;DHT22;51730;56.950;24.126;2023-03-14T08:09:32;7.20;99.90
65146;DHT22;51730;56.950;24.126;2023-03-14T08:11:59;7.20;99.90
65146;DHT22;51730;56.950;24.126;2023-03-14T08:14:26;7.20;99.90
65146;DHT22;51730;56.950;24.126;2023-03-14T08:16:52;7.20;99.90
65146;DHT22;51730;56.950;24.126;2023-03-14T08:19:19;7.30;99.90
65146;DHT22;51730;56.950;24.126;2023-03-14T08:21:47;7.30;99.90
65146;DHT22;51730;56.950;24.126;2023-03-14T08:24:15;7.40;99.90
65146;DHT22;51730;56.950;24.126;2023-03-14T08:26:42;7.40;99.90
65146;DHT22;51730;56.950;24.126;2023-03-14T08:29:09;7.40;99.90
65146;DHT22;51730;56.950;24.126;2023-03-14T08:31:36;7.40;99.90
65146;DHT22;51730;56.950;24.126;2023-03-14T08:34:03;7.40;99.90
65146;DHT22;51730;56.950;24.126;2023-03-14T08:36:29;7.50;99.90
65146;DHT22;51730;56.950;24.126;2023-03-14T08:38:57;7.50;99.90
65146;DHT22;51730;56.950;24.126;2023-03-14T08:41:24;7.60;99.90
65146;DHT22;51730;56.950;24.126;2023-03-14T08:43:51;7.70;99.90
65146;DHT22;51730;56.950;24.126;2023-03-14T08:46:17;7.80;99.90
65146;DHT22;51730;56.950;24.126;2023-03-14T08:48:44;7.90;99.90
65146;DHT22;51730;56.950;24.126;2023-03-14T08:51:12;7.90;99.90
65146;DHT22;51730;56.950;24.126;2023-03-14T08:53:41;7.90;99.90
65146;DHT22;51730;56.950;24.126;2023-03-14T08:56:08;8.00;99.90
65146;DHT22;51730;56.950;24.126;2023-03-14T08:58:37;8.00;99.90
65146;DHT22;51730;56.950;24.126;2023-03-14T09:01:05;8.00;99.90
65146;DHT22;51730;56.950;24.126;2023-03-14T09:03:32;8.10;99.90
65146;DHT22;51730;56.950;24.126;2023-03-14T09:06:05;8.10;99.90
65146;DHT22;51730;56.950;24.126;2023-03-14T09:08:33;8.20;99.90
65146;DHT22;51730;56.950;24.126;2023-03-14T09:11:01;8.30;99.90
65146;DHT22;51730;56.950;24.126;2023-03-14T09:13:28;8.30;99.90
65146;DHT22;51730;56.950;24.126;2023-03-14T09:15:57;8.30;99.90
65146;DHT22;51730;56.950;24.126;2023-03-14T09:18:24;8.40;99.90
65146;DHT22;51730;56.950;24.126;2023-03-14T09:20:50;8.40;99.90
65146;DHT22;51730;56.950;24.126;2023-03-14T09:23:17;8.50;99.90
65146;DHT22;51730;56.950;24.126;2023-03-14T09:25:44;8.50;99.90
65146;DHT22;51730;56.950;24.126;2023-03-14T09:28:11;8.50;99.90
65146;DHT22;51730;56.950;24.126;2023-03-14T09:30:38;8.50;99.90
65146;DHT22;51730;56.950;24.126;2023-03-14T09:33:05;8.60;99.90
65146;DHT22;51730;56.950;24.126;2023-03-14T09:35:33;8.60;99.90
65146;DHT22;51730;56.950;24.126;2023-03-14T09:38:00;8.60;99.90
65146;DHT22;51730;56.950;24.126;2023-03-14T09:40:27;8.60;99.90
65146;DHT22;51730;56.950;24.126;2023-03-14T09:42:57;8.70;99.90
65146;DHT22;51730;56.950;24.126;2023-03-14T09:45:26;8.70;99.90
65146;DHT22;51730;56.950;24.126;2023-03-14T09:47:53;8.80;99.90
65146;DHT22;51730;56.950;24.126;2023-03-14T09:50:25;8.80;99.90
65146;DHT22;51730;56.950;24.126;2023-03-14T09:52:56;8.90;99.90
65146;DHT22;51730;56.950;24.126;2023-03-14T09:55:23;8.80;99.90
65146;DHT22;51730;56.950;24.126;2023-03-14T09:57:50;8.90;99.90
65146;DHT22;51730;56.950;24.126;2023-03-14T10:00:21;9.00;99.90
65146;DHT22;51730;56.950;24.126;2023-03-14T10:02:55;9.20;99.90
65146;DHT22;51730;56.950;24.126;2023-03-14T10:05:24;9.20;99.90
65146;DHT22;51730;56.950;24.126;2023-03-14T10:07:51;9.30;99.90
65146;DHT22;51730;56.950;24.126;2023-03-14T10:10:22;9.30;99.90
65146;DHT22;51730;56.950;24.126;2023-03-14T10:12:58;9.30;99.90
65146;DHT22;51730;56.950;24.126;2023-03-14T10:15:30;9.30;99.90
65146;DHT22;51730;56.950;24.126;2023-03-14T10:17:58;9.30;99.90
65146;DHT22;51730;56.950;24.126;2023-03-14T10:23:00;9.50;99.90
65146;DHT22;51730;56.950;24.126;2023-03-14T10:25:31;9.40;99.90
65146;DHT22;51730;56.950;24.126;2023-03-14T10:27:58;9.40;99.90
65146;DHT22;51730;56.950;24.126;2023-03-14T10:30:44;9.50;99.90
65146;DHT22;51730;56.950;24.126;2023-03-14T10:33:22;9.50;99.90
65146;DHT22;51730;56.950;24.126;2023-03-14T10:35:57;9.30;99.90
65146;DHT22;51730;56.950;24.126;2023-03-14T10:38:25;9.30;99.90
65146;DHT22;51730;56.950;24.126;2023-03-14T10:40:53;9.30;99.90
65146;DHT22;51730;56.950;24.126;2023-03-14T10:43:25;9.30;99.90
65146;DHT22;51730;56.950;24.126;2023-03-14T10:45:54;9.40;99.90
65146;DHT22;51730;56.950;24.126;2023-03-14T10:48:45;9.40;99.90
65146;DHT22;51730;56.950;24.126;2023-03-14T10:51:45;9.40;99.90
65146;DHT22;51730;56.950;24.126;2023-03-14T10:54:19;9.40;99.90
65146;DHT22;51730;56.950;24.126;2023-03-14T10:56:47;9.30;99.90
65146;DHT22;51730;56.950;24.126;2023-03-14T10:59:22;9.30;99.90
65146;DHT22;51730;56.950;24.126;2023-03-14T11:04:25;9.20;99.90
65146;DHT22;51730;56.950;24.126;2023-03-14T11:09:38;9.50;99.90
65146;DHT22;51730;56.950;24.126;2023-03-14T11:12:14;9.70;99.90
65146;DHT22;51730;56.950;24.126;2023-03-14T11:14:48;9.70;99.90
65146;DHT22;51730;56.950;24.126;2023-03-14T11:17:25;9.70;99.90
65146;DHT22;51730;56.950;24.126;2023-03-14T11:20:01;9.70;99.90
65146;DHT22;51730;56.950;24.126;2023-03-14T11:22:47;9.70;99.90
65146;DHT22;51730;56.950;24.126;2023-03-14T11:25:26;9.80;99.90
65146;DHT22;51730;56.950;24.126;2023-03-14T11:30:39;10.20;99.90
65146;DHT22;51730;56.950;24.126;2023-03-14T11:33:13;10.20;99.90
65146;DHT22;51730;56.950;24.126;2023-03-14T11:40:47;10.10;99.90
65146;DHT22;51730;56.950;24.126;2023-03-14T11:43:18;10.00;99.90
65146;DHT22;51730;56.950;24.126;2023-03-14T11:45:46;10.00;99.90
65146;DHT22;51730;56.950;24.126;2023-03-14T11:48:35;9.90;99.90
65146;DHT22;51730;56.950;24.126;2023-03-14T11:51:05;10.00;99.90
65146;DHT22;51730;56.950;24.126;2023-03-14T11:56:00;10.10;99.90
65146;DHT22;51730;56.950;24.126;2023-03-14T11:58:29;10.00;99.90
65146;DHT22;51730;56.950;24.126;2023-03-14T12:00:57;9.90;99.90
65146;DHT22;51730;56.950;24.126;2023-03-14T12:06:47;9.80;99.90
65146;DHT22;51730;56.950;24.126;2023-03-14T12:09:15;9.90;99.90
65146;DHT22;51730;56.950;24.126;2023-03-14T12:11:47;9.90;99.90
65146;DHT22;51730;56.950;24.126;2023-03-14T12:14:19;10.00;99.90
65146;DHT22;51730;56.950;24.126;2023-03-14T12:16:47;10.00;99.90
65146;DHT22;51730;56.950;24.126;2023-03-14T12:24:17;10.00;99.90
65146;DHT22;51730;56.950;24.126;2023-03-14T12:26:55;10.00;99.90
65146;DHT22;51730;56.950;24.126;2023-03-14T12:29:22;10.10;99.90
65146;DHT22;51730;56.950;24.126;2023-03-14T12:32:05;10.10;99.90
65146;DHT22;51730;56.950;24.126;2023-03-14T12:34:40;10.10;99.90
65146;DHT22;51730;56.950;24.126;2023-03-14T12:46:59;9.90;99.90
65146;DHT22;51730;56.950;24.126;2023-03-14T12:49:29;9.90;99.90
65146;DHT22;51730;56.950;24.126;2023-03-14T12:51:59;9.90;99.90
65146;DHT22;51730;56.950;24.126;2023-03-14T12:59:48;9.80;99.90
65146;DHT22;51730;56.950;24.126;2023-03-14T13:07:28;9.80;99.90
65146;DHT22;51730;56.950;24.126;2023-03-14T13:10:16;9.80;99.90
65146;DHT22;51730;56.950;24.126;2023-03-14T13:12:49;9.60;99.90
65146;DHT22;51730;56.950;24.126;2023-03-14T13:15:31;9.60;99.90
65146;DHT22;51730;56.950;24.126;2023-03-14T13:18:00;9.60;99.90
65146;DHT22;51730;56.950;24.126;2023-03-14T13:20:29;9.70;99.90
65146;DHT22;51730;56.950;24.126;2023-03-14T13:22:57;9.70;99.90
65146;DHT22;51730;56.950;24.126;2023-03-14T13:25:24;9.50;99.90
65146;DHT22;51730;56.950;24.126;2023-03-14T13:27:55;9.50;99.90
65146;DHT22;51730;56.950;24.126;2023-03-14T13:32:50;9.30;99.90
65146;DHT22;51730;56.950;24.126;2023-03-14T13:35:21;9.20;99.90
65146;DHT22;51730;56.950;24.126;2023-03-14T13:37:52;9.20;99.90
65146;DHT22;51730;56.950;24.126;2023-03-14T13:40:35;9.10;99.90
65146;DHT22;51730;56.950;24.126;2023-03-14T13:43:13;9.10;99.90
65146;DHT22;51730;56.950;24.126;2023-03-14T13:48:16;8.90;99.90
65146;DHT22;51730;56.950;24.126;2023-03-14T13:50:45;8.80;99.90
65146;DHT22;51730;56.950;24.126;2023-03-14T13:53:12;8.70;99.90
65146;DHT22;51730;56.950;24.126;2023-03-14T13:55:39;8.70;99.90
65146;DHT22;51730;56.950;24.126;2023-03-14T13:58:10;8.70;99.90
65146;DHT22;51730;56.950;24.126;2023-03-14T14:00:38;8.70;99.90
65146;DHT22;51730;56.950;24.126;2023-03-14T14:03:08;8.70;99.90
65146;DHT22;51730;56.950;24.126;2023-03-14T14:05:36;8.60;99.90
65146;DHT22;51730;56.950;24.126;2023-03-14T14:08:06;8.70;99.90
65146;DHT22;51730;56.950;24.126;2023-03-14T14:10:35;8.60;99.90
65146;DHT22;51730;56.950;24.126;2023-03-14T14:13:03;8.60;99.90
65146;DHT22;51730;56.950;24.126;2023-03-14T14:15:31;8.70;99.90
65146;DHT22;51730;56.950;24.126;2023-03-14T14:18:00;8.60;99.90
65146;DHT22;51730;56.950;24.126;2023-03-14T14:20:29;8.70;99.90
65146;DHT22;51730;56.950;24.126;2023-03-14T14:22:59;8.60;99.90
65146;DHT22;51730;56.950;24.126;2023-03-14T14:25:28;8.50;99.90
65146;DHT22;51730;56.950;24.126;2023-03-14T14:27:55;8.50;99.90
65146;DHT22;51730;56.950;24.126;2023-03-14T14:32:49;8.40;99.90
65146;DHT22;51730;56.950;24.126;2023-03-14T14:35:24;8.40;99.90
65146;DHT22;51730;56.950;24.126;2023-03-14T14:37:51;8.30;99.90
65146;DHT22;51730;56.950;24.126;2023-03-14T14:42:48;8.30;99.90
65146;DHT22;51730;56.950;24.126;2023-03-14T14:45:19;8.30;99.90
65146;DHT22;51730;56.950;24.126;2023-03-14T14:55:53;8.10;99.90
65146;DHT22;51730;56.950;24.126;2023-03-14T14:58:25;8.10;99.90
65146;DHT22;51730;56.950;24.126;2023-03-14T15:03:19;8.00;99.90
65146;DHT22;51730;56.950;24.126;2023-03-14T15:05:46;8.00;99.90
65146;DHT22;51730;56.950;24.126;2023-03-14T15:08:12;8.00;99.90
65146;DHT22;51730;56.950;24.126;2023-03-14T15:10:39;8.00;99.90
65146;DHT22;51730;56.950;24.126;2023-03-14T15:13:06;8.00;99.90
65146;DHT22;51730;56.950;24.126;2023-03-14T15:15:33;8.00;99.90
65146;DHT22;51730;56.950;24.126;2023-03-14T15:18:01;8.00;99.90
65146;DHT22;51730;56.950;24.126;2023-03-14T15:20:27;7.90;99.90
65146;DHT22;51730;56.950;24.126;2023-03-14T15:22:54;7.90;99.90
65146;DHT22;51730;56.950;24.126;2023-03-14T15:25:21;7.80;99.90
65146;DHT22;51730;56.950;24.126;2023-03-14T15:28:13;7.80;99.90
65146;DHT22;51730;56.950;24.126;2023-03-14T15:30:42;7.80;99.90
65146;DHT22;51730;56.950;24.126;2023-03-14T15:33:09;7.70;99.90
65146;DHT22;51730;56.950;24.126;2023-03-14T15:35:36;7.70;99.90
65146;DHT22;51730;56.950;24.126;2023-03-14T15:38:03;7.70;99.90
65146;DHT22;51730;56.950;24.126;2023-03-14T15:40:30;7.70;99.90
65146;DHT22;51730;56.950;24.126;2023-03-14T15:42:57;7.70;99.90
65146;DHT22;51730;56.950;24.126;2023-03-14T15:45:24;7.70;99.90
65146;DHT22;51730;56.950;24.126;2023-03-14T15:47:51;7.70;99.90
65146;DHT22;51730;56.950;24.126;2023-03-14T15:50:17;7.70;99.90
65146;DHT22;51730;56.950;24.126;2023-03-14T15:52:45;7.70;99.90
65146;DHT22;51730;56.950;24.126;2023-03-14T15:55:12;7.70;99.90
65146;DHT22;51730;56.950;24.126;2023-03-14T15:57:42;7.70;99.90
65146;DHT22;51730;56.950;24.126;2023-03-14T16:00:13;7.60;99.90
65146;DHT22;51730;56.950;24.126;2023-03-14T16:02:41;7.70;99.90
65146;DHT22;51730;56.950;24.126;2023-03-14T16:05:08;7.70;99.90
65146;DHT22;51730;56.950;24.126;2023-03-14T16:07:36;7.60;99.90
65146;DHT22;51730;56.950;24.126;2023-03-14T16:10:03;7.60;99.90
65146;DHT22;51730;56.950;24.126;2023-03-14T16:12:30;7.60;99.90
65146;DHT22;51730;56.950;24.126;2023-03-14T16:14:57;7.60;99.90
65146;DHT22;51730;56.950;24.126;2023-03-14T16:17:23;7.60;99.90
65146;DHT22;51730;56.950;24.126;2023-03-14T16:19:50;7.60;99.90
65146;DHT22;51730;56.950;24.126;2023-03-14T16:22:17;7.50;99.90
65146;DHT22;51730;56.950;24.126;2023-03-14T16:24:44;7.60;99.90
65146;DHT22;51730;56.950;24.126;2023-03-14T16:27:11;7.60;99.90
65146;DHT22;51730;56.950;24.126;2023-03-14T16:29:38;7.60;99.90
65146;DHT22;51730;56.950;24.126;2023-03-14T16:32:05;7.60;99.90
65146;DHT22;51730;56.950;24.126;2023-03-14T16:34:32;7.60;99.90
65146;DHT22;51730;56.950;24.126;2023-03-14T16:36:59;7.60;99.90
65146;DHT22;51730;56.950;24.126;2023-03-14T16:39:25;7.60;99.90
65146;DHT22;51730;56.950;24.126;2023-03-14T16:41:54;7.60;99.90
65146;DHT22;51730;56.950;24.126;2023-03-14T16:44:24;7.60;99.90
65146;DHT22;51730;56.950;24.126;2023-03-14T16:46:51;7.50;99.90
65146;DHT22;51730;56.950;24.126;2023-03-14T16:49:18;7.50;99.90
65146;DHT22;51730;56.950;24.126;2023-03-14T16:51:44;7.50;99.90
65146;DHT22;51730;56.950;24.126;2023-03-14T16:54:11;7.50;99.90